sensor_id;sensor_type;location;lat;lon;timestamp;temperature;humidity
8780;DHT22;62328;51.19929245;4.42130175;2023-02-01T00:01:05;7.20;99.90
8780;DHT22;62328;51.19929245;4.42130175;2023-02-01T00:03:32;7.20;99.90
8780;DHT22;62328;51.19929245;4.42130175;2023-02-01T00:06:00;7.10;99.90
8780;DHT22;62328;51.19929245;4.42130175;2023-02-01T00:08:27;7.20;99.90
8780;DHT22;62328;51.19929245;4.42130175;2023-02-01T00:11:00;7.20;99.90
8780;DHT22;62328;51.19929245;4.42130175;2023-02-01T00:13:28;7.30;99.90
8780;DHT22;62328;51.19929245;4.42130175;2023-02-01T00:16:04;7.30;99.90
8780;DHT22;62328;51.19929245;4.42130175;2023-02-01T00:18:31;7.20;99.90
8780;DHT22;62328;51.19929245;4.42130175;2023-02-01T00:20:58;7.30;99.90
8780;DHT22;62328;51.19929245;4.42130175;2023-02-01T00:23:25;7.30;99.90
8780;DHT22;62328;51.19929245;4.42130175;2023-02-01T00:25:52;7.30;99.90
8780;DHT22;62328;51.19929245;4.42130175;2023-02-01T00:28:19;7.40;99.90
8780;DHT22;62328;51.19929245;4.42130175;2023-02-01T00:30:56;7.40;99.90
8780;DHT22;62328;51.19929245;4.42130175;2023-02-01T00:33:24;7.40;99.90
8780;DHT22;62328;51.19929245;4.42130175;2023-02-01T00:35:51;7.30;99.90
8780;DHT22;62328;51.19929245;4.42130175;2023-02-01T00:38:22;7.40;99.90
8780;DHT22;62328;51.19929245;4.42130175;2023-02-01T00:40:48;7.40;99.90
8780;DHT22;62328;51.19929245;4.42130175;2023-02-01T00:43:15;7.30;99.90
8780;DHT22;62328;51.19929245;4.42130175;2023-02-01T00:45:42;7.40;99.90
8780;DHT22;62328;51.19929245;4.42130175;2023-02-01T00:48:09;7.30;99.90
8780;DHT22;62328;51.19929245;4.42130175;2023-02-01T00:50:41;7.30;99.90
8780;DHT22;62328;51.19929245;4.42130175;2023-02-01T00:53:08;7.20;99.90
8780;DHT22;62328;51.19929245;4.42130175;2023-02-01T00:55:35;7.20;99.90
8780;DHT22;62328;51.19929245;4.42130175;2023-02-01T00:58:02;7.20;99.90
8780;DHT22;62328;51.19929245;4.42130175;2023-02-01T01:00:33;7.20;99.90
8780;DHT22;62328;51.19929245;4.42130175;2023-02-01T01:02:59;7.20;99.90
8780;DHT22;62328;51.19929245;4.42130175;2023-02-01T01:05:26;7.20;99.90
8780;DHT22;62328;51.19929245;4.42130175;2023-02-01T01:07:55;7.10;99.90
8780;DHT22;62328;51.19929245;4.42130175;2023-02-01T01:10:22;7.10;99.90
8780;DHT22;62328;51.19929245;4.42130175;2023-02-01T01:12:49;7.10;99.90
8780;DHT22;62328;51.19929245;4.42130175;2023-02-01T01:15:16;7.10;99.90
8780;DHT22;62328;51.19929245;4.42130175;2023-02-01T01:17:43;7.10;99.90
8780;DHT22;62328;51.19929245;4.42130175;2023-02-01T01:20:11;7.10;99.90
8780;DHT22;62328;51.19929245;4.42130175;2023-02-01T01:22:38;7.10;99.90
8780;DHT22;62328;51.19929245;4.42130175;2023-02-01T01:25:06;7.10;99.90
8780;DHT22;62328;51.19929245;4.42130175;2023-02-01T01:27:33;7.10;99.90
8780;DHT22;62328;51.19929245;4.42130175;2023-02-01T01:30:00;7.10;99.90
8780;DHT22;62328;51.19929245;4.42130175;2023-02-01T01:32:27;7.10;99.90
8780;DHT22;62328;51.19929245;4.42130175;2023-02-01T01:34:53;7.10;99.90
8780;DHT22;62328;51.19929245;4.42130175;2023-02-01T01:37:20;7.10;99.90
8780;DHT22;62328;51.19929245;4.42130175;2023-02-01T01:39:47;7.00;99.90
8780;DHT22;62328;51.19929245;4.42130175;2023-02-01T01:42:15;7.00;99.90
8780;DHT22;62328;51.19929245;4.42130175;2023-02-01T01:45:03;7.00;99.90
8780;DHT22;62328;51.19929245;4.42130175;2023-02-01T01:47:34;6.90;99.90
8780;DHT22;62328;51.19929245;4.42130175;2023-02-01T01:50:04;6.90;99.90
8780;DHT22;62328;51.19929245;4.42130175;2023-02-01T01:52:33;7.00;99.90
8780;DHT22;62328;51.19929245;4.42130175;2023-02-01T01:55:01;6.90;99.90
8780;DHT22;62328;51.19929245;4.42130175;2023-02-01T01:57:32;6.90;99.90
8780;DHT22;62328;51.19929245;4.42130175;2023-02-01T02:00:03;6.90;99.90
8780;DHT22;62328;51.19929245;4.42130175;2023-02-01T02:02:30;6.80;99.90
8780;DHT22;62328;51.19929245;4.42130175;2023-02-01T02:04:57;6.90;99.90
8780;DHT22;62328;51.19929245;4.42130175;2023-02-01T02:07:28;6.90;99.90
8780;DHT22;62328;51.19929245;4.42130175;2023-02-01T02:09:55;6.80;99.90
8780;DHT22;62328;51.19929245;4.42130175;2023-02-01T02:12:22;6.90;99.90
8780;DHT22;62328;51.19929245;4.42130175;2023-02-01T02:14:50;6.90;99.90
8780;DHT22;62328;51.19929245;4.42130175;2023-02-01T02:17:27;6.90;99.90
8780;DHT22;62328;51.19929245;4.42130175;2023-02-01T02:20:22;6.90;99.90
8780;DHT22;62328;51.19929245;4.42130175;2023-02-01T02:23:26;6.90;99.90
8780;DHT22;62328;51.19929245;4.42130175;2023-02-01T02:26:24;7.00;99.90
8780;DHT22;62328;51.19929245;4.42130175;2023-02-01T02:29:30;7.00;99.90
8780;DHT22;62328;51.19929245;4.42130175;2023-02-01T02:32:23;6.90;99.90
8780;DHT22;62328;51.19929245;4.42130175;2023-02-01T02:34:59;6.90;99.90
8780;DHT22;62328;51.19929245;4.42130175;2023-02-01T02:37:34;6.90;99.90
8780;DHT22;62328;51.19929245;4.42130175;2023-02-01T02:40:09;6.90;99.90
8780;DHT22;62328;51.19929245;4.42130175;2023-02-01T02:42:41;6.90;99.90
8780;DHT22;62328;51.19929245;4.42130175;2023-02-01T02:45:35;6.80;99.90
8780;DHT22;62328;51.19929245;4.42130175;2023-02-01T02:48:25;6.90;99.90
8780;DHT22;62328;51.19929245;4.42130175;2023-02-01T02:50:59;6.80;99.90
8780;DHT22;62328;51.19929245;4.42130175;2023-02-01T02:53:48;6.90;99.90
8780;DHT22;62328;51.19929245;4.42130175;2023-02-01T02:56:35;6.90;99.90
8780;DHT22;62328;51.19929245;4.42130175;2023-02-01T02:59:23;6.90;99.90
8780;DHT22;62328;51.19929245;4.42130175;2023-02-01T03:02:09;6.90;99.90
8780;DHT22;62328;51.19929245;4.42130175;2023-02-01T03:04:54;6.90;99.90
8780;DHT22;62328;51.19929245;4.42130175;2023-02-01T03:10:35;6.90;99.90
8780;DHT22;62328;51.19929245;4.42130175;2023-02-01T03:13:06;6.90;99.90
8780;DHT22;62328;51.19929245;4.42130175;2023-02-01T03:15:38;6.90;99.90
8780;DHT22;62328;51.19929245;4.42130175;2023-02-01T03:18:09;7.00;99.90
8780;DHT22;62328;51.19929245;4.42130175;2023-02-01T03:20:40;7.00;99.90
8780;DHT22;62328;51.19929245;4.42130175;2023-02-01T03:23:10;6.90;99.90
8780;DHT22;62328;51.19929245;4.42130175;2023-02-01T03:25:40;6.90;99.90
8780;DHT22;62328;51.19929245;4.42130175;2023-02-01T03:28:08;6.90;99.90
8780;DHT22;62328;51.19929245;4.42130175;2023-02-01T03:30:38;6.80;99.90
8780;DHT22;62328;51.19929245;4.42130175;2023-02-01T03:33:11;6.80;99.90
8780;DHT22;62328;51.19929245;4.42130175;2023-02-01T03:35:52;6.80;99.90
8780;DHT22;62328;51.19929245;4.42130175;2023-02-01T03:38:23;6.80;99.90
8780;DHT22;62328;51.19929245;4.42130175;2023-02-01T03:40:57;6.80;99.90
8780;DHT22;62328;51.19929245;4.42130175;2023-02-01T03:43:28;6.80;99.90
8780;DHT22;62328;51.19929245;4.42130175;2023-02-01T03:45:59;6.80;99.90
8780;DHT22;62328;51.19929245;4.42130175;2023-02-01T03:48:27;6.80;99.90
8780;DHT22;62328;51.19929245;4.42130175;2023-02-01T03:50:57;6.80;99.90
8780;DHT22;62328;51.19929245;4.42130175;2023-02-01T03:53:26;6.70;99.90
8780;DHT22;62328;51.19929245;4.42130175;2023-02-01T03:55:55;6.80;99.90
8780;DHT22;62328;51.19929245;4.42130175;2023-02-01T03:58:23;6.70;99.90
8780;DHT22;62328;51.19929245;4.42130175;2023-02-01T04:00:51;6.70;99.90
8780;DHT22;62328;51.19929245;4.42130175;2023-02-01T04:03:18;6.70;99.90
8780;DHT22;62328;51.19929245;4.42130175;2023-02-01T04:05:47;6.70;99.90
8780;DHT22;62328;51.19929245;4.42130175;2023-02-01T04:08:14;6.70;99.90
8780;DHT22;62328;51.19929245;4.42130175;2023-02-01T04:10:40;6.60;99.90
8780;DHT22;62328;51.19929245;4.42130175;2023-02-01T04:13:08;6.60;99.90
8780;DHT22;62328;51.19929245;4.42130175;2023-02-01T04:15:35;6.60;99.90
8780;DHT22;62328;51.19929245;4.42130175;2023-02-01T04:18:02;6.60;99.90
8780;DHT22;62328;51.19929245;4.42130175;2023-02-01T04:20:29;6.60;99.90
8780;DHT22;62328;51.19929245;4.42130175;2023-02-01T04:22:56;6.60;99.90
8780;DHT22;62328;51.19929245;4.42130175;2023-02-01T04:25:22;6.50;99.90
8780;DHT22;62328;51.19929245;4.42130175;2023-02-01T04:27:49;6.60;99.90
8780;DHT22;62328;51.19929245;4.42130175;2023-02-01T04:30:18;6.60;99.90
8780;DHT22;62328;51.19929245;4.42130175;2023-02-01T04:32:45;6.60;99.90
8780;DHT22;62328;51.19929245;4.42130175;2023-02-01T04:35:12;6.50;99.90
8780;DHT22;62328;51.19929245;4.42130175;2023-02-01T04:37:39;6.60;99.90
8780;DHT22;62328;51.19929245;4.42130175;2023-02-01T04:40:07;6.60;99.90
8780;DHT22;62328;51.19929245;4.42130175;2023-02-01T04:42:33;6.60;99.90
8780;DHT22;62328;51.19929245;4.42130175;2023-02-01T04:45:00;6.60;99.90
8780;DHT22;62328;51.19929245;4.42130175;2023-02-01T04:47:28;6.60;99.90
8780;DHT22;62328;51.19929245;4.42130175;2023-02-01T04:49:55;6.60;99.90
8780;DHT22;62328;51.19929245;4.42130175;2023-02-01T04:52:22;6.50;99.90
8780;DHT22;62328;51.19929245;4.42130175;2023-02-01T04:54:49;6.50;99.90
8780;DHT22;62328;51.19929245;4.42130175;2023-02-01T04:57:15;6.50;99.90
8780;DHT22;62328;51.19929245;4.42130175;2023-02-01T04:59:42;6.60;99.90
8780;DHT22;62328;51.19929245;4.42130175;2023-02-01T05:02:09;6.60;99.90
8780;DHT22;62328;51.19929245;4.42130175;2023-02-01T05:04:37;6.60;99.90
8780;DHT22;62328;51.19929245;4.42130175;2023-02-01T05:07:04;6.50;99.90
8780;DHT22;62328;51.19929245;4.42130175;2023-02-01T05:09:30;6.50;99.90
8780;DHT22;62328;51.19929245;4.42130175;2023-02-01T05:11:57;6.50;99.90
8780;DHT22;62328;51.19929245;4.42130175;2023-02-01T05:14:41;6.40;99.90
8780;DHT22;62328;51.19929245;4.42130175;2023-02-01T05:17:08;6.40;99.90
8780;DHT22;62328;51.19929245;4.42130175;2023-02-01T05:19:36;6.40;99.90
8780;DHT22;62328;51.19929245;4.42130175;2023-02-01T05:22:03;6.50;99.90
8780;DHT22;62328;51.19929245;4.42130175;2023-02-01T05:24:30;6.50;99.90
8780;DHT22;62328;51.19929245;4.42130175;2023-02-01T05:26:57;6.40;99.90
8780;DHT22;62328;51.19929245;4.42130175;2023-02-01T05:29:23;6.40;99.90
8780;DHT22;62328;51.19929245;4.42130175;2023-02-01T05:31:50;6.40;99.90
8780;DHT22;62328;51.19929245;4.42130175;2023-02-01T05:34:17;6.40;99.90
8780;DHT22;62328;51.19929245;4.42130175;2023-02-01T05:36:45;6.50;99.90
8780;DHT22;62328;51.19929245;4.42130175;2023-02-01T05:39:12;6.40;99.90
8780;DHT22;62328;51.19929245;4.42130175;2023-02-01T05:41:39;6.40;99.90
8780;DHT22;62328;51.19929245;4.42130175;2023-02-01T05:44:06;6.40;99.90
8780;DHT22;62328;51.19929245;4.42130175;2023-02-01T05:46:33;6.40;99.90
8780;DHT22;62328;51.19929245;4.42130175;2023-02-01T05:49:02;6.30;99.90
8780;DHT22;62328;51.19929245;4.42130175;2023-02-01T05:51:28;6.40;99.90
8780;DHT22;62328;51.19929245;4.42130175;2023-02-01T05:53:57;6.40;99.90
8780;DHT22;62328;51.19929245;4.42130175;2023-02-01T05:56:23;6.40;99.90
8780;DHT22;62328;51.19929245;4.42130175;2023-02-01T05:58:50;6.40;99.90
8780;DHT22;62328;51.19929245;4.42130175;2023-02-01T06:01:17;6.40;99.90
8780;DHT22;62328;51.19929245;4.42130175;2023-02-01T06:03:44;6.30;99.90
8780;DHT22;62328;51.19929245;4.42130175;2023-02-01T06:06:11;6.30;99.90
8780;DHT22;62328;51.19929245;4.42130175;2023-02-01T06:08:38;6.30;99.90
8780;DHT22;62328;51.19929245;4.42130175;2023-02-01T06:11:07;6.20;99.90
8780;DHT22;62328;51.19929245;4.42130175;2023-02-01T06:13:34;6.30;99.90
8780;DHT22;62328;51.19929245;4.42130175;2023-02-01T06:16:03;6.20;99.90
8780;DHT22;62328;51.19929245;4.42130175;2023-02-01T06:18:31;6.20;99.90
8780;DHT22;62328;51.19929245;4.42130175;2023-02-01T06:21:02;6.20;99.90
8780;DHT22;62328;51.19929245;4.42130175;2023-02-01T06:23:32;6.20;99.90
8780;DHT22;62328;51.19929245;4.42130175;2023-02-01T06:26:00;6.30;99.90
8780;DHT22;62328;51.19929245;4.42130175;2023-02-01T06:28:30;6.20;99.90
8780;DHT22;62328;51.19929245;4.42130175;2023-02-01T06:30:57;6.20;99.90
8780;DHT22;62328;51.19929245;4.42130175;2023-02-01T06:33:24;6.20;99.90
8780;DHT22;62328;51.19929245;4.42130175;2023-02-01T06:35:56;6.20;99.90
8780;DHT22;62328;51.19929245;4.42130175;2023-02-01T06:38:24;6.20;99.90
8780;DHT22;62328;51.19929245;4.42130175;2023-02-01T06:40:52;6.20;99.90
8780;DHT22;62328;51.19929245;4.42130175;2023-02-01T06:43:19;6.20;99.90
8780;DHT22;62328;51.19929245;4.42130175;2023-02-01T06:45:47;6.20;99.90
8780;DHT22;62328;51.19929245;4.42130175;2023-02-01T06:48:14;6.30;99.90
8780;DHT22;62328;51.19929245;4.42130175;2023-02-01T06:50:41;6.30;99.90
8780;DHT22;62328;51.19929245;4.42130175;2023-02-01T06:53:08;6.20;99.90
8780;DHT22;62328;51.19929245;4.42130175;2023-02-01T06:55:35;6.20;99.90
8780;DHT22;62328;51.19929245;4.42130175;2023-02-01T06:58:02;6.20;99.90
8780;DHT22;62328;51.19929245;4.42130175;2023-02-01T07:00:29;6.20;99.90
8780;DHT22;62328;51.19929245;4.42130175;2023-02-01T07:02:58;6.20;99.90
8780;DHT22;62328;51.19929245;4.42130175;2023-02-01T07:05:25;6.20;99.90
8780;DHT22;62328;51.19929245;4.42130175;2023-02-01T07:07:52;6.20;99.90
8780;DHT22;62328;51.19929245;4.42130175;2023-02-01T07:10:19;6.30;99.90
8780;DHT22;62328;51.19929245;4.42130175;2023-02-01T07:12:46;6.30;99.90
8780;DHT22;62328;51.19929245;4.42130175;2023-02-01T07:15:12;6.40;99.90
8780;DHT22;62328;51.19929245;4.42130175;2023-02-01T07:17:39;6.40;99.90
8780;DHT22;62328;51.19929245;4.42130175;2023-02-01T07:20:09;6.40;99.90
8780;DHT22;62328;51.19929245;4.42130175;2023-02-01T07:22:36;6.40;99.90
8780;DHT22;62328;51.19929245;4.42130175;2023-02-01T07:25:03;6.40;99.90
8780;DHT22;62328;51.19929245;4.42130175;2023-02-01T07:27:33;6.40;99.90
8780;DHT22;62328;51.19929245;4.42130175;2023-02-01T07:30:00;6.40;99.90
8780;DHT22;62328;51.19929245;4.42130175;2023-02-01T07:32:28;6.40;99.90
8780;DHT22;62328;51.19929245;4.42130175;2023-02-01T07:34:54;6.40;99.90
8780;DHT22;62328;51.19929245;4.42130175;2023-02-01T07:37:23;6.40;99.90
8780;DHT22;62328;51.19929245;4.42130175;2023-02-01T07:39:50;6.40;99.90
8780;DHT22;62328;51.19929245;4.42130175;2023-02-01T07:42:17;6.40;99.90
8780;DHT22;62328;51.19929245;4.42130175;2023-02-01T07:44:44;6.40;99.90
8780;DHT22;62328;51.19929245;4.42130175;2023-02-01T07:47:11;6.30;99.90
8780;DHT22;62328;51.19929245;4.42130175;2023-02-01T07:49:37;6.40;99.90
8780;DHT22;62328;51.19929245;4.42130175;2023-02-01T07:52:04;6.40;99.90
8780;DHT22;62328;51.19929245;4.42130175;2023-02-01T07:54:33;6.40;99.90
8780;DHT22;62328;51.19929245;4.42130175;2023-02-01T07:56:59;6.40;99.90
8780;DHT22;62328;51.19929245;4.42130175;2023-02-01T07:59:26;6.40;99.90
8780;DHT22;62328;51.19929245;4.42130175;2023-02-01T08:01:53;6.40;99.90
8780;DHT22;62328;51.19929245;4.42130175;2023-02-01T08:04:19;6.40;99.90
8780;DHT22;62328;51.19929245;4.42130175;2023-02-01T08:06:45;6.40;99.90
8780;DHT22;62328;51.19929245;4.42130175;2023-02-01T08:09:12;6.50;99.90
8780;DHT22;62328;51.19929245;4.42130175;2023-02-01T08:11:41;6.50;99.90
8780;DHT22;62328;51.19929245;4.42130175;2023-02-01T08:14:08;6.60;99.90
8780;DHT22;62328;51.19929245;4.42130175;2023-02-01T08:16:35;6.60;99.90
8780;DHT22;62328;51.19929245;4.42130175;2023-02-01T08:19:03;6.60;99.90
8780;DHT22;62328;51.19929245;4.42130175;2023-02-01T08:21:30;6.60;99.90
8780;DHT22;62328;51.19929245;4.42130175;2023-02-01T08:24:03;6.70;99.90
8780;DHT22;62328;51.19929245;4.42130175;2023-02-01T08:26:30;6.70;99.90
8780;DHT22;62328;51.19929245;4.42130175;2023-02-01T08:29:00;6.70;99.90
8780;DHT22;62328;51.19929245;4.42130175;2023-02-01T08:31:29;6.80;99.90
8780;DHT22;62328;51.19929245;4.42130175;2023-02-01T08:33:57;6.80;99.90
8780;DHT22;62328;51.19929245;4.42130175;2023-02-01T08:36:25;6.80;99.90
8780;DHT22;62328;51.19929245;4.42130175;2023-02-01T08:38:52;7.30;99.90
8780;DHT22;62328;51.19929245;4.42130175;2023-02-01T08:41:21;6.90;99.90
8780;DHT22;62328;51.19929245;4.42130175;2023-02-01T08:43:48;6.90;99.90
8780;DHT22;62328;51.19929245;4.42130175;2023-02-01T08:46:17;7.00;99.90
8780;DHT22;62328;51.19929245;4.42130175;2023-02-01T08:48:45;6.90;99.90
8780;DHT22;62328;51.19929245;4.42130175;2023-02-01T08:51:15;6.90;99.90
8780;DHT22;62328;51.19929245;4.42130175;2023-02-01T08:53:42;6.90;99.90
8780;DHT22;62328;51.19929245;4.42130175;2023-02-01T08:56:10;7.00;99.90
8780;DHT22;62328;51.19929245;4.42130175;2023-02-01T08:58:37;7.10;99.90
8780;DHT22;62328;51.19929245;4.42130175;2023-02-01T09:01:04;7.10;99.90
8780;DHT22;62328;51.19929245;4.42130175;2023-02-01T09:03:32;7.10;99.90
8780;DHT22;62328;51.19929245;4.42130175;2023-02-01T09:06:00;7.10;99.90
8780;DHT22;62328;51.19929245;4.42130175;2023-02-01T09:08:27;7.10;99.90
8780;DHT22;62328;51.19929245;4.42130175;2023-02-01T09:10:58;7.10;99.90
8780;DHT22;62328;51.19929245;4.42130175;2023-02-01T09:13:25;7.20;99.90
8780;DHT22;62328;51.19929245;4.42130175;2023-02-01T09:15:52;7.20;99.90
8780;DHT22;62328;51.19929245;4.42130175;2023-02-01T09:18:18;7.20;99.90
8780;DHT22;62328;51.19929245;4.42130175;2023-02-01T09:20:47;7.20;99.90
8780;DHT22;62328;51.19929245;4.42130175;2023-02-01T09:23:14;7.10;99.90
8780;DHT22;62328;51.19929245;4.42130175;2023-02-01T09:25:40;7.20;99.90
8780;DHT22;62328;51.19929245;4.42130175;2023-02-01T09:28:07;7.20;99.90
8780;DHT22;62328;51.19929245;4.42130175;2023-02-01T09:30:35;7.20;99.90
8780;DHT22;62328;51.19929245;4.42130175;2023-02-01T09:33:02;7.20;99.90
8780;DHT22;62328;51.19929245;4.42130175;2023-02-01T09:35:29;7.30;99.90
8780;DHT22;62328;51.19929245;4.42130175;2023-02-01T09:37:57;7.30;99.90
8780;DHT22;62328;51.19929245;4.42130175;2023-02-01T09:40:24;7.30;99.90
8780;DHT22;62328;51.19929245;4.42130175;2023-02-01T09:43:10;7.40;99.90
8780;DHT22;62328;51.19929245;4.42130175;2023-02-01T09:45:45;7.40;99.90
8780;DHT22;62328;51.19929245;4.42130175;2023-02-01T09:48:17;7.50;99.90
8780;DHT22;62328;51.19929245;4.42130175;2023-02-01T09:50:48;7.50;99.90
8780;DHT22;62328;51.19929245;4.42130175;2023-02-01T09:53:22;7.60;99.90
8780;DHT22;62328;51.19929245;4.42130175;2023-02-01T09:55:55;7.60;99.90
8780;DHT22;62328;51.19929245;4.42130175;2023-02-01T09:58:30;7.70;99.90
8780;DHT22;62328;51.19929245;4.42130175;2023-02-01T10:01:00;7.80;99.90
8780;DHT22;62328;51.19929245;4.42130175;2023-02-01T10:03:30;7.90;99.90
8780;DHT22;62328;51.19929245;4.42130175;2023-02-01T10:06:27;8.00;99.90
8780;DHT22;62328;51.19929245;4.42130175;2023-02-01T10:09:24;8.00;99.90
8780;DHT22;62328;51.19929245;4.42130175;2023-02-01T10:12:12;8.00;99.90
8780;DHT22;62328;51.19929245;4.42130175;2023-02-01T10:14:52;8.10;99.90
8780;DHT22;62328;51.19929245;4.42130175;2023-02-01T10:17:42;8.10;99.90
8780;DHT22;62328;51.19929245;4.42130175;2023-02-01T10:20:18;8.30;99.90
8780;DHT22;62328;51.19929245;4.42130175;2023-02-01T10:22:57;8.40;99.90
8780;DHT22;62328;51.19929245;4.42130175;2023-02-01T10:25:32;8.50;99.90
8780;DHT22;62328;51.19929245;4.42130175;2023-02-01T10:28:03;8.50;99.90
8780;DHT22;62328;51.19929245;4.42130175;2023-02-01T10:30:34;8.70;99.90
8780;DHT22;62328;51.19929245;4.42130175;2023-02-01T10:33:14;8.70;99.90
8780;DHT22;62328;51.19929245;4.42130175;2023-02-01T10:35:44;8.70;99.90
8780;DHT22;62328;51.19929245;4.42130175;2023-02-01T10:38:17;8.80;99.90
8780;DHT22;62328;51.19929245;4.42130175;2023-02-01T10:40:46;8.90;99.90
8780;DHT22;62328;51.19929245;4.42130175;2023-02-01T10:43:13;9.00;99.90
8780;DHT22;62328;51.19929245;4.42130175;2023-02-01T10:45:40;9.10;99.90
8780;DHT22;62328;51.19929245;4.42130175;2023-02-01T10:48:08;9.20;99.90
8780;DHT22;62328;51.19929245;4.42130175;2023-02-01T10:50:38;9.30;99.90
8780;DHT22;62328;51.19929245;4.42130175;2023-02-01T10:53:11;9.40;99.90
8780;DHT22;62328;51.19929245;4.42130175;2023-02-01T10:55:50;9.40;99.90
8780;DHT22;62328;51.19929245;4.42130175;2023-02-01T10:58:19;9.50;99.90
8780;DHT22;62328;51.19929245;4.42130175;2023-02-01T11:00:52;9.50;99.90
8780;DHT22;62328;51.19929245;4.42130175;2023-02-01T11:03:33;9.50;99.90
8780;DHT22;62328;51.19929245;4.42130175;2023-02-01T11:06:01;9.50;99.90
8780;DHT22;62328;51.19929245;4.42130175;2023-02-01T11:08:28;9.60;99.90
8780;DHT22;62328;51.19929245;4.42130175;2023-02-01T11:11:02;9.60;99.90
8780;DHT22;62328;51.19929245;4.42130175;2023-02-01T11:13:33;9.50;99.90
8780;DHT22;62328;51.19929245;4.42130175;2023-02-01T11:16:04;9.60;99.90
8780;DHT22;62328;51.19929245;4.42130175;2023-02-01T11:18:35;9.60;99.90
8780;DHT22;62328;51.19929245;4.42130175;2023-02-01T11:21:06;9.70;99.90
8780;DHT22;62328;51.19929245;4.42130175;2023-02-01T11:23:33;9.60;99.90
8780;DHT22;62328;51.19929245;4.42130175;2023-02-01T11:26:11;9.60;99.90
8780;DHT22;62328;51.19929245;4.42130175;2023-02-01T11:28:41;9.50;99.90
8780;DHT22;62328;51.19929245;4.42130175;2023-02-01T11:31:13;9.50;99.90
8780;DHT22;62328;51.19929245;4.42130175;2023-02-01T11:33:48;9.50;99.90
8780;DHT22;62328;51.19929245;4.42130175;2023-02-01T11:36:17;9.50;99.90
8780;DHT22;62328;51.19929245;4.42130175;2023-02-01T11:38:52;9.40;99.90
8780;DHT22;62328;51.19929245;4.42130175;2023-02-01T11:41:23;9.50;99.90
8780;DHT22;62328;51.19929245;4.42130175;2023-02-01T11:43:53;9.40;99.90
8780;DHT22;62328;51.19929245;4.42130175;2023-02-01T11:46:24;9.40;99.90
8780;DHT22;62328;51.19929245;4.42130175;2023-02-01T11:48:53;9.40;99.90
8780;DHT22;62328;51.19929245;4.42130175;2023-02-01T11:51:37;9.40;99.90
8780;DHT22;62328;51.19929245;4.42130175;2023-02-01T11:54:24;9.30;99.90
8780;DHT22;62328;51.19929245;4.42130175;2023-02-01T11:57:07;9.30;99.90
8780;DHT22;62328;51.19929245;4.42130175;2023-02-01T11:59:53;9.30;99.90
8780;DHT22;62328;51.19929245;4.42130175;2023-02-01T12:02:46;9.30;99.90
8780;DHT22;62328;51.19929245;4.42130175;2023-02-01T12:05:31;9.30;99.90
8780;DHT22;62328;51.19929245;4.42130175;2023-02-01T12:08:18;9.40;99.90
8780;DHT22;62328;51.19929245;4.42130175;2023-02-01T12:11:02;9.40;99.90
8780;DHT22;62328;51.19929245;4.42130175;2023-02-01T12:13:41;9.30;99.90
8780;DHT22;62328;51.19929245;4.42130175;2023-02-01T12:16:20;9.30;99.90
8780;DHT22;62328;51.19929245;4.42130175;2023-02-01T12:19:18;9.50;99.90
8780;DHT22;62328;51.19929245;4.42130175;2023-02-01T12:21:57;9.60;99.90
8780;DHT22;62328;51.19929245;4.42130175;2023-02-01T12:24:44;9.60;99.90
8780;DHT22;62328;51.19929245;4.42130175;2023-02-01T12:27:38;9.60;99.90
8780;DHT22;62328;51.19929245;4.42130175;2023-02-01T12:30:47;9.60;99.90
8780;DHT22;62328;51.19929245;4.42130175;2023-02-01T12:33:25;9.70;99.90
8780;DHT22;62328;51.19929245;4.42130175;2023-02-01T12:36:03;9.70;99.90
8780;DHT22;62328;51.19929245;4.42130175;2023-02-01T12:38:42;9.70;99.90
8780;DHT22;62328;51.19929245;4.42130175;2023-02-01T12:41:26;9.60;99.90
8780;DHT22;62328;51.19929245;4.42130175;2023-02-01T12:43:57;9.60;99.90
8780;DHT22;62328;51.19929245;4.42130175;2023-02-01T12:46:30;9.60;99.90
8780;DHT22;62328;51.19929245;4.42130175;2023-02-01T12:49:01;9.50;99.90
8780;DHT22;62328;51.19929245;4.42130175;2023-02-01T12:51:33;9.50;99.90
8780;DHT22;62328;51.19929245;4.42130175;2023-02-01T12:54:06;9.60;99.90
8780;DHT22;62328;51.19929245;4.42130175;2023-02-01T12:56:39;9.50;99.90
8780;DHT22;62328;51.19929245;4.42130175;2023-02-01T12:59:16;9.60;99.90
8780;DHT22;62328;51.19929245;4.42130175;2023-02-01T13:01:48;9.60;99.90
8780;DHT22;62328;51.19929245;4.42130175;2023-02-01T13:04:22;9.60;99.90
8780;DHT22;62328;51.19929245;4.42130175;2023-02-01T13:06:55;9.60;99.90
8780;DHT22;62328;51.19929245;4.42130175;2023-02-01T13:09:29;9.60;99.90
8780;DHT22;62328;51.19929245;4.42130175;2023-02-01T13:12:00;9.60;99.90
8780;DHT22;62328;51.19929245;4.42130175;2023-02-01T13:14:37;9.60;99.90
8780;DHT22;62328;51.19929245;4.42130175;2023-02-01T13:17:12;9.60;99.90
8780;DHT22;62328;51.19929245;4.42130175;2023-02-01T13:19:43;9.60;99.90
8780;DHT22;62328;51.19929245;4.42130175;2023-02-01T13:22:15;9.60;99.90
8780;DHT22;62328;51.19929245;4.42130175;2023-02-01T13:24:45;9.50;99.90
8780;DHT22;62328;51.19929245;4.42130175;2023-02-01T13:27:14;9.60;99.90
8780;DHT22;62328;51.19929245;4.42130175;2023-02-01T13:29:47;9.60;99.90
8780;DHT22;62328;51.19929245;4.42130175;2023-02-01T13:32:42;9.60;99.90
8780;DHT22;62328;51.19929245;4.42130175;2023-02-01T13:35:35;9.60;99.90
8780;DHT22;62328;51.19929245;4.42130175;2023-02-01T13:38:30;9.70;99.90
8780;DHT22;62328;51.19929245;4.42130175;2023-02-01T13:41:08;9.70;99.90
8780;DHT22;62328;51.19929245;4.42130175;2023-02-01T13:43:39;9.70;99.90
8780;DHT22;62328;51.19929245;4.42130175;2023-02-01T13:46:10;9.70;99.90
8780;DHT22;62328;51.19929245;4.42130175;2023-02-01T13:48:46;9.70;99.90
8780;DHT22;62328;51.19929245;4.42130175;2023-02-01T13:51:32;9.60;99.90
8780;DHT22;62328;51.19929245;4.42130175;2023-02-01T13:54:00;9.70;99.90
8780;DHT22;62328;51.19929245;4.42130175;2023-02-01T13:56:27;9.70;99.90
8780;DHT22;62328;51.19929245;4.42130175;2023-02-01T13:58:54;9.70;99.90
8780;DHT22;62328;51.19929245;4.42130175;2023-02-01T14:01:34;9.60;99.90
8780;DHT22;62328;51.19929245;4.42130175;2023-02-01T14:04:05;9.60;99.90
8780;DHT22;62328;51.19929245;4.42130175;2023-02-01T14:06:41;9.50;99.90
8780;DHT22;62328;51.19929245;4.42130175;2023-02-01T14:09:30;9.50;99.90
8780;DHT22;62328;51.19929245;4.42130175;2023-02-01T14:11:58;9.60;99.90
8780;DHT22;62328;51.19929245;4.42130175;2023-02-01T14:14:48;9.60;99.90